Time;durP1;ratioP1;P1;durP2;ratioP2;P2;SDS_P1;SDS_P2;PMS_P1;PMS_P2;Temp;Humidity;BMP_temperature;BMP_pressure;BME280_temperature;BME280_humidity;BME280_pressure;Samples;Min_cycle;Max_cycle;Signal;HPM_P1;HPM_P2
2022/09/09 00:01:20;;;;;;;6.93;3.85;;;;;;;14.47;100.00;100698.97;4908189;28;20248;-72
2022/09/09 00:04:11;;;;;;;6.82;4.20;;;;;;;14.47;100.00;100700.78;4921980;28;20137;-71
2022/09/09 00:06:44;;;;;;;6.97;3.47;;;;;;;14.31;100.00;100698.50;4921705;28;20043;-72
2022/09/09 00:09:15;;;;;;;4.63;3.42;;;;;;;14.33;100.00;100695.69;4920798;28;20059;-72
2022/09/09 00:11:50;;;;;;;5.55;3.92;;;;;;;14.31;100.00;100695.81;4944675;28;20035;-72
2022/09/09 00:14:42;;;;;;;8.38;3.90;;;;;;;14.34;100.00;100689.31;4927898;28;20043;-72
2022/09/09 00:17:42;;;;;;;4.97;3.10;;;;;;;14.37;100.00;100689.09;4932643;28;20047;-72
2022/09/09 00:21:02;;;;;;;5.15;3.50;;;;;;;14.43;100.00;100689.44;4929051;28;20475;-72
2022/09/09 00:23:30;;;;;;;5.97;3.40;;;;;;;14.54;100.00;100701.16;4889176;29;20361;-72
2022/09/09 00:26:16;;;;;;;5.45;3.50;;;;;;;14.60;100.00;100693.44;4882410;29;20119;-72
2022/09/09 00:28:52;;;;;;;5.97;3.40;;;;;;;14.52;100.00;100685.19;4884887;29;20060;-71
2022/09/09 00:31:25;;;;;;;5.15;3.13;;;;;;;14.50;100.00;100687.97;4875771;29;20213;-71
2022/09/09 00:33:52;;;;;;;5.22;3.03;;;;;;;14.50;100.00;100687.13;4880044;29;20067;-71
2022/09/09 00:36:25;;;;;;;7.47;3.08;;;;;;;14.48;100.00;100691.78;4870116;29;20136;-71
2022/09/09 00:38:57;;;;;;;3.45;2.90;;;;;;;14.48;100.00;100695.31;4870485;29;20048;-71
2022/09/09 00:41:32;;;;;;;5.70;2.63;;;;;;;14.45;100.00;100692.81;4881316;29;20060;-71
2022/09/09 00:44:06;;;;;;;5.70;2.60;;;;;;;14.45;100.00;100689.28;4884862;29;20409;-71
2022/09/09 00:46:50;;;;;;;4.88;2.88;;;;;;;14.50;100.00;100685.28;4873566;29;20754;-72
2022/09/09 00:49:46;;;;;;;4.40;2.58;;;;;;;14.57;100.00;100677.59;4880217;29;20048;-71
2022/09/09 00:52:39;;;;;;;5.03;2.75;;;;;;;14.49;100.00;100682.75;4877710;29;20079;-71
2022/09/09 00:55:20;;;;;;;3.28;2.25;;;;;;;14.36;100.00;100679.34;4938086;28;20186;-72
2022/09/09 00:57:50;;;;;;;3.88;2.47;;;;;;;14.45;100.00;100676.72;4928903;28;20697;-72
2022/09/09 01:00:20;;;;;;;3.67;2.30;;;;;;;14.40;100.00;100678.09;4918428;28;20394;-72
2022/09/09 01:03:10;;;;;;;7.35;2.00;;;;;;;14.28;100.00;100668.38;4918891;28;20036;-72
2022/09/09 01:05:42;;;;;;;5.25;2.70;;;;;;;14.44;100.00;100666.97;4941164;28;20040;-71
2022/09/09 01:08:19;;;;;;;4.60;2.70;;;;;;;14.38;100.00;100674.69;4930952;28;20180;-72
2022/09/09 01:10:53;;;;;;;5.85;2.38;;;;;;;14.37;100.00;100671.16;4935722;28;20031;-72
2022/09/09 01:13:33;;;;;;;5.70;2.28;;;;;;;14.27;100.00;100672.03;4934513;28;20040;-72
2022/09/09 01:16:07;;;;;;;3.20;1.92;;;;;;;14.18;100.00;100679.00;4932312;28;20047;-72
2022/09/09 01:18:40;;;;;;;3.63;2.22;;;;;;;14.08;100.00;100672.69;4944201;28;20039;-72
2022/09/09 01:21:14;;;;;;;3.30;1.85;;;;;;;14.04;100.00;100674.75;4925039;28;20684;-72
2022/09/09 01:23:42;;;;;;;5.95;1.92;;;;;;;14.05;100.00;100673.75;4934393;28;20680;-72
2022/09/09 01:26:26;;;;;;;6.10;2.50;;;;;;;13.97;100.00;100684.28;4927576;28;20125;-72
2022/09/09 01:28:53;;;;;;;2.70;1.90;;;;;;;13.96;100.00;100678.06;4921311;28;20497;-71
2022/09/09 01:31:32;;;;;;;4.25;1.60;;;;;;;14.00;100.00;100687.53;4960394;28;20081;-72
2022/09/09 01:33:58;;;;;;;3.88;1.90;;;;;;;13.95;100.00;100679.00;4945977;28;20649;-72
2022/09/09 01:36:35;;;;;;;4.60;1.95;;;;;;;13.84;100.00;100678.16;4941470;28;20031;-72
2022/09/09 01:39:00;;;;;;;2.47;2.13;;;;;;;13.94;100.00;100676.47;4915606;28;20146;-72
2022/09/09 01:41:27;;;;;;;6.35;1.95;;;;;;;13.93;100.00;100672.94;4926435;29;20035;-72
2022/09/09 01:44:19;;;;;;;3.30;1.95;;;;;;;13.83;100.00;100666.59;4919784;28;20058;-72
2022/09/09 01:46:45;;;;;;;5.43;2.10;;;;;;;13.71;100.00;100672.94;4939040;28;20043;-72
2022/09/09 01:49:16;;;;;;;4.47;2.10;;;;;;;13.79;100.00;100669.66;4936119;28;20055;-72
2022/09/09 01:51:43;;;;;;;3.08;2.28;;;;;;;13.67;100.00;100669.66;4923503;28;20606;-72
2022/09/09 01:54:11;;;;;;;6.28;2.40;;;;;;;13.62;100.00;100671.00;4927550;28;20043;-72
2022/09/09 01:56:42;;;;;;;3.20;1.90;;;;;;;13.67;100.00;100675.00;4937292;28;20071;-72
2022/09/09 01:59:24;;;;;;;7.32;2.53;;;;;;;13.64;100.00;100677.91;4934290;28;20390;-71
2022/09/09 02:02:11;;;;;;;2.83;2.45;;;;;;;13.65;100.00;100676.94;4946420;28;20059;-71
2022/09/09 02:04:48;;;;;;;6.70;2.47;;;;;;;13.63;100.00;100668.19;4937744;28;20692;-71
2022/09/09 02:07:43;;;;;;;5.15;2.95;;;;;;;13.58;100.00;100674.88;4919100;28;20043;-71
2022/09/09 02:10:35;;;;;;;5.05;3.63;;;;;;;13.42;100.00;100669.88;4929613;28;20035;-71
2022/09/09 02:13:14;;;;;;;6.60;3.17;;;;;;;13.48;100.00;100667.56;4928033;28;20043;-71
2022/09/09 02:15:58;;;;;;;3.20;2.63;;;;;;;13.44;100.00;100674.13;4935355;28;20039;-72
2022/09/09 02:18:34;;;;;;;5.45;3.25;;;;;;;13.37;100.00;100674.75;4934192;28;20614;-71
2022/09/09 02:21:00;;;;;;;4.57;2.78;;;;;;;13.38;100.00;100665.72;4953079;28;20774;-71
2022/09/09 02:23:27;;;;;;;5.47;3.05;;;;;;;13.40;100.00;100671.81;4936581;28;20162;-71
2022/09/09 02:25:58;;;;;;;9.13;3.30;;;;;;;13.31;100.00;100675.22;4942713;28;20031;-70
2022/09/09 02:28:28;;;;;;;7.43;3.47;;;;;;;13.34;100.00;100672.28;4925443;29;20070;-72
2022/09/09 02:30:54;;;;;;;2.83;2.42;;;;;;;13.42;100.00;100670.72;4947041;28;20989;-71
2022/09/09 02:33:27;;;;;;;7.72;2.70;;;;;;;13.42;100.00;100656.47;4953746;28;20087;-71
2022/09/09 02:35:56;;;;;;;4.13;2.40;;;;;;;13.39;100.00;100660.25;4956924;28;20036;-72
2022/09/09 02:38:28;;;;;;;4.22;2.67;;;;;;;13.31;100.00;100654.66;4941031;28;20792;-71
2022/09/09 02:40:59;;;;;;;6.72;3.35;;;;;;;13.28;100.00;100660.22;4932799;28;20043;-71
2022/09/09 02:43:25;;;;;;;10.73;3.00;;;;;;;13.21;100.00;100664.34;4939964;28;20090;-72
2022/09/09 02:46:03;;;;;;;6.50;2.67;;;;;;;13.18;100.00;100657.38;4952115;28;20070;-72
2022/09/09 02:48:45;;;;;;;4.05;3.25;;;;;;;13.16;100.00;100664.69;4931212;28;20155;-71
2022/09/09 02:51:27;;;;;;;6.45;3.17;;;;;;;13.21;100.00;100662.53;4926472;28;20048;-71
2022/09/09 02:54:17;;;;;;;7.33;3.30;;;;;;;13.14;100.00;100657.72;4912200;28;20059;-71
2022/09/09 02:56:51;;;;;;;15.82;4.60;;;;;;;13.24;100.00;100655.22;4915265;28;20035;-72
2022/09/09 02:59:17;;;;;;;9.70;3.85;;;;;;;13.15;100.00;100654.06;4919848;28;20039;-72
2022/09/09 03:01:43;;;;;;;6.10;2.90;;;;;;;13.27;100.00;100655.00;4938081;28;20047;-73
2022/09/09 03:04:09;;;;;;;4.75;3.65;;;;;;;13.18;100.00;100652.03;4941888;28;20070;-71
2022/09/09 03:06:35;;;;;;;9.38;3.72;;;;;;;13.15;100.00;100656.75;4927702;28;20035;-71
2022/09/09 03:09:11;;;;;;;5.35;3.55;;;;;;;13.15;100.00;100656.75;4930057;28;20229;-71
2022/09/09 03:11:38;;;;;;;6.60;4.18;;;;;;;13.10;100.00;100657.13;4927404;28;20035;-72
2022/09/09 03:14:04;;;;;;;6.63;4.47;;;;;;;13.09;100.00;100662.59;4943103;28;20408;-71
2022/09/09 03:16:33;;;;;;;7.07;3.97;;;;;;;13.11;100.00;100660.66;4948832;28;20030;-71
2022/09/09 03:18:58;;;;;;;11.57;4.15;;;;;;;13.06;100.00;100655.66;4927665;28;20305;-72
2022/09/09 03:21:24;;;;;;;7.97;4.25;;;;;;;13.08;100.00;100663.56;4946751;28;20043;-71
2022/09/09 03:23:50;;;;;;;11.63;4.95;;;;;;;13.14;100.00;100657.72;4935976;28;20748;-71
2022/09/09 03:26:16;;;;;;;6.78;4.68;;;;;;;13.06;100.00;100661.00;4943188;28;20027;-71
2022/09/09 03:28:44;;;;;;;14.48;5.43;;;;;;;13.06;100.00;100662.84;4930764;28;20043;-72
2022/09/09 03:31:10;;;;;;;10.00;4.90;;;;;;;13.04;100.00;100662.09;4910283;28;20465;-71
2022/09/09 03:33:40;;;;;;;20.45;5.85;;;;;;;13.08;100.00;100663.56;4927698;28;20051;-71
2022/09/09 03:36:08;;;;;;;13.35;5.95;;;;;;;13.17;100.00;100670.88;4948834;28;20058;-72
2022/09/09 03:38:34;;;;;;;14.13;5.38;;;;;;;13.25;100.00;100670.31;4963005;28;20038;-72
2022/09/09 03:41:01;;;;;;;9.98;5.45;;;;;;;13.21;100.00;100664.34;4942121;28;20050;-72
2022/09/09 03:43:28;;;;;;;10.95;5.40;;;;;;;13.16;100.00;100661.16;4928511;28;20043;-72
2022/09/09 03:45:56;;;;;;;9.00;5.40;;;;;;;13.25;100.00;100660.44;4927853;28;20039;-71
2022/09/09 03:48:24;;;;;;;10.95;6.22;;;;;;;13.25;100.00;100664.97;4926027;28;20449;-72
2022/09/09 03:50:52;;;;;;;8.55;5.35;;;;;;;13.26;100.00;100661.34;4943124;28;20126;-72
2022/09/09 03:53:22;;;;;;;11.52;5.70;;;;;;;13.31;100.00;100659.16;4927121;28;20035;-72
2022/09/09 03:55:51;;;;;;;19.08;6.80;;;;;;;13.34;100.00;100656.22;4940699;28;20126;-71
2022/09/09 03:58:19;;;;;;;10.25;5.93;;;;;;;13.43;100.00;100642.09;4945103;28;20059;-71
2022/09/09 04:01:18;;;;;;;13.75;6.25;;;;;;;13.36;100.00;100648.94;4943415;28;20043;-71
2022/09/09 04:03:47;;;;;;;13.65;6.57;;;;;;;13.39;100.00;100649.53;4897617;28;20042;-72
2022/09/09 04:06:14;;;;;;;12.63;6.68;;;;;;;13.49;100.00;100644.31;4932193;28;20110;-72
2022/09/09 04:08:42;;;;;;;12.02;6.82;;;;;;;13.52;100.00;100654.78;4942182;28;20035;-72
2022/09/09 04:11:09;;;;;;;14.25;6.50;;;;;;;13.53;100.00;100645.78;4927347;28;20049;-71
2022/09/09 04:13:38;;;;;;;17.73;7.28;;;;;;;13.59;100.00;100649.78;4942610;28;20243;-71
2022/09/09 04:16:04;;;;;;;19.42;7.13;;;;;;;13.61;100.00;100645.19;4926677;28;20145;-72
2022/09/09 04:18:31;;;;;;;17.85;6.32;;;;;;;13.61;100.00;100645.19;4927839;28;20035;-71
2022/09/09 04:20:57;;;;;;;11.23;6.10;;;;;;;13.61;100.00;100648.72;4930305;28;20047;-72
2022/09/09 04:23:28;;;;;;;13.02;6.18;;;;;;;13.74;100.00;100648.56;4935550;28;20044;-71
2022/09/09 04:25:55;;;;;;;15.65;6.82;;;;;;;13.77;100.00;100645.66;4920168;28;20051;-71
2022/09/09 04:28:23;;;;;;;12.90;6.35;;;;;;;13.83;100.00;100638.94;4936280;28;20023;-71
2022/09/09 04:30:49;;;;;;;11.43;6.65;;;;;;;13.81;100.00;100636.41;4943836;28;20061;-72
2022/09/09 04:33:17;;;;;;;13.88;6.65;;;;;;;13.85;100.00;100637.84;4927419;28;20810;-72
2022/09/09 04:35:48;;;;;;;13.10;6.75;;;;;;;13.85;100.00;100639.66;4937939;28;20125;-72
2022/09/09 04:38:15;;;;;;;15.77;6.63;;;;;;;13.94;100.00;100636.25;4929535;28;20431;-72
2022/09/09 04:40:46;;;;;;;14.45;6.90;;;;;;;13.96;100.00;100628.94;4933377;28;20031;-71
2022/09/09 04:43:14;;;;;;;20.30;6.93;;;;;;;13.96;100.00;100629.81;4931976;28;20301;-72
2022/09/09 04:45:40;;;;;;;16.65;7.53;;;;;;;13.98;100.00;100627.84;4933695;28;20043;-71
2022/09/09 04:48:07;;;;;;;13.43;6.05;;;;;;;13.97;100.00;100636.00;4942933;28;20122;-72
2022/09/09 04:50:33;;;;;;;16.98;6.40;;;;;;;14.00;100.00;100633.91;4931595;28;20038;-71
2022/09/09 04:53:04;;;;;;;18.00;6.78;;;;;;;14.05;100.00;100628.19;4932368;28;20039;-71
2022/09/09 04:55:31;;;;;;;16.65;6.90;;;;;;;14.07;100.00;100639.66;4931457;28;20173;-71
2022/09/09 04:57:57;;;;;;;14.82;6.00;;;;;;;14.11;100.00;100633.06;4935557;28;20065;-71
2022/09/09 05:00:24;;;;;;;13.35;7.70;;;;;;;14.17;100.00;100634.41;4922749;28;20071;-72
2022/09/09 05:02:51;;;;;;;14.77;6.13;;;;;;;14.24;100.00;100627.53;4919605;28;20949;-72
2022/09/09 05:05:18;;;;;;;15.93;6.68;;;;;;;14.23;100.00;100626.69;4939759;28;20044;-71
2022/09/09 05:07:47;;;;;;;14.15;6.18;;;;;;;14.29;100.00;100629.84;4928478;28;20201;-72
2022/09/09 05:10:13;;;;;;;11.57;5.80;;;;;;;14.31;100.00;100627.88;4948985;28;20054;-71
2022/09/09 05:12:39;;;;;;;12.98;5.70;;;;;;;14.34;100.00;100623.13;4935568;28;20035;-71
2022/09/09 05:15:05;;;;;;;13.10;5.75;;;;;;;14.35;100.00;100619.44;4920787;28;20039;-72
2022/09/09 05:17:31;;;;;;;11.15;5.60;;;;;;;14.41;100.00;100616.28;4917467;28;20493;-71
2022/09/09 05:19:56;;;;;;;15.43;6.03;;;;;;;14.41;100.00;100610.06;4926188;28;20031;-71
2022/09/09 05:22:23;;;;;;;13.07;5.32;;;;;;;14.42;100.00;100611.75;4914334;28;20058;-72
2022/09/09 05:24:52;;;;;;;12.13;5.53;;;;;;;14.41;100.00;100610.06;4939628;28;20729;-71
2022/09/09 05:27:19;;;;;;;14.65;5.60;;;;;;;14.41;100.00;100618.13;4938295;28;20036;-71
2022/09/09 05:29:46;;;;;;;11.60;4.88;;;;;;;14.47;100.00;100617.59;4923479;28;20518;-70
2022/09/09 05:32:14;;;;;;;11.07;4.70;;;;;;;14.53;100.00;100617.13;4926727;28;20040;-70
2022/09/09 05:34:40;;;;;;;13.55;4.47;;;;;;;14.60;100.00;100612.91;4959823;28;20043;-71
2022/09/09 05:37:07;;;;;;;7.68;3.83;;;;;;;14.64;100.00;100616.22;4943776;28;20391;-71
2022/09/09 05:39:33;;;;;;;11.90;5.20;;;;;;;14.71;100.00;100618.25;4936536;28;20040;-71
2022/09/09 05:41:59;;;;;;;10.70;4.93;;;;;;;14.73;100.00;100613.59;4942124;28;20090;-71
2022/09/09 05:44:27;;;;;;;12.45;4.00;;;;;;;14.83;100.00;100616.38;4945851;28;20481;-71
2022/09/09 05:46:54;;;;;;;18.60;4.60;;;;;;;14.88;100.00;100615.97;4943830;28;20122;-72
2022/09/09 05:49:21;;;;;;;10.35;4.32;;;;;;;14.91;100.00;100621.94;4938455;28;20125;-71
2022/09/09 05:51:47;;;;;;;14.70;4.80;;;;;;;14.90;100.00;100628.28;4931982;28;20924;-69
2022/09/09 05:54:15;;;;;;;17.45;4.05;;;;;;;14.90;100.00;100622.91;4935390;28;20031;-71
2022/09/09 05:56:44;;;;;;;11.80;4.38;;;;;;;14.90;100.00;100620.22;4932658;28;20027;-71
2022/09/09 05:59:11;;;;;;;12.38;4.10;;;;;;;14.89;100.00;100625.72;4946437;28;20873;-70
2022/09/09 06:01:40;;;;;;;11.27;4.43;;;;;;;14.96;100.00;100632.25;4937583;28;20256;-70
2022/09/09 06:04:08;;;;;;;17.27;4.30;;;;;;;14.99;100.00;100623.97;4945942;28;20047;-73
2022/09/09 06:06:39;;;;;;;7.97;3.97;;;;;;;15.02;100.00;100624.56;4925690;28;20134;-70
2022/09/09 06:09:10;;;;;;;12.10;4.05;;;;;;;15.05;100.00;100630.63;4932352;28;20812;-71
2022/09/09 06:11:39;;;;;;;9.45;3.88;;;;;;;15.08;100.00;100633.06;4947534;28;20055;-71
2022/09/09 06:14:05;;;;;;;20.10;4.82;;;;;;;15.16;100.00;100635.94;4934343;28;20039;-73
2022/09/09 06:16:34;;;;;;;12.40;3.88;;;;;;;15.14;100.00;100640.59;4932152;28;20138;-73
2022/09/09 06:19:03;;;;;;;9.40;3.85;;;;;;;15.27;100.00;100633.19;4938706;28;20446;-72
2022/09/09 06:21:32;;;;;;;8.32;4.05;;;;;;;15.43;100.00;100638.09;4917433;28;20032;-71
2022/09/09 06:24:00;;;;;;;11.43;4.50;;;;;;;15.62;100.00;100630.13;4918835;28;20122;-72
2022/09/09 06:26:37;;;;;;;9.25;3.22;;;;;;;15.84;100.00;100633.63;4918866;28;20418;-72
2022/09/09 06:29:04;;;;;;;11.55;3.75;;;;;;;15.93;100.00;100624.75;4938555;28;20614;-71
2022/09/09 06:31:33;;;;;;;11.30;3.38;;;;;;;15.99;100.00;100630.41;4946662;28;20035;-72
2022/09/09 06:34:07;;;;;;;7.13;3.30;;;;;;;16.10;100.00;100620.53;4944324;28;20066;-71
2022/09/09 06:36:36;;;;;;;8.73;3.13;;;;;;;16.11;100.00;100622.22;4936232;28;20039;-71
2022/09/09 06:39:03;;;;;;;9.75;4.07;;;;;;;16.37;100.00;100633.34;4938351;28;20150;-71
2022/09/09 06:41:32;;;;;;;12.82;3.33;;;;;;;16.72;100.00;100625.59;4946917;28;20031;-70
2022/09/09 06:43:59;;;;;;;9.90;3.25;;;;;;;16.55;100.00;100629.78;4941435;28;20037;-72
2022/09/09 06:46:33;;;;;;;4.82;2.83;;;;;;;16.46;100.00;100629.78;4942858;28;20031;-71
2022/09/09 06:49:00;;;;;;;9.82;3.30;;;;;;;16.46;100.00;100627.09;4928497;28;20163;-71
2022/09/09 06:51:33;;;;;;;9.30;2.40;;;;;;;16.34;100.00;100631.75;4928416;28;20288;-71
2022/09/09 06:54:02;;;;;;;10.45;2.95;;;;;;;16.28;100.00;100626.94;4935684;28;20035;-71
2022/09/09 06:56:31;;;;;;;8.40;2.80;;;;;;;16.20;100.00;100629.47;4937177;28;20046;-70
2022/09/09 06:59:00;;;;;;;16.65;3.97;;;;;;;16.13;100.00;100633.72;4938645;28;20028;-72
2022/09/09 07:01:31;;;;;;;8.88;2.70;;;;;;;16.14;100.00;100633.56;4933566;28;20027;-71
2022/09/09 07:04:00;;;;;;;13.73;3.08;;;;;;;16.67;100.00;100629.69;4931016;28;20075;-71
2022/09/09 07:06:29;;;;;;;13.73;3.40;;;;;;;16.90;100.00;100635.63;4935268;28;20822;-72
2022/09/09 07:08:58;;;;;;;11.38;3.03;;;;;;;17.17;100.00;100633.06;4939023;28;20063;-71
2022/09/09 07:11:28;;;;;;;11.50;2.97;;;;;;;17.22;100.00;100628.09;4930877;28;20027;-71
2022/09/09 07:13:57;;;;;;;9.68;2.90;;;;;;;17.22;100.00;100624.50;4959000;28;20259;-72
2022/09/09 07:16:27;;;;;;;11.82;3.15;;;;;;;17.42;100.00;100625.31;4927790;28;20499;-71
2022/09/09 07:18:57;;;;;;;10.27;3.15;;;;;;;17.41;100.00;100632.53;4942937;28;20118;-72
2022/09/09 07:21:24;;;;;;;17.80;4.57;;;;;;;17.39;100.00;100628.31;4920801;28;20853;-71
2022/09/09 07:23:51;;;;;;;10.50;3.20;;;;;;;17.33;100.00;100637.84;4925952;28;20036;-71
2022/09/09 07:26:19;;;;;;;13.48;3.45;;;;;;;17.09;100.00;100630.22;4946657;28;20063;-71
2022/09/09 07:28:46;;;;;;;5.72;3.05;;;;;;;16.95;100.00;100631.50;4934331;28;20842;-72
2022/09/09 07:31:20;;;;;;;14.50;3.25;;;;;;;17.15;100.00;100629.63;4926029;28;20075;-72
2022/09/09 07:33:46;;;;;;;10.00;2.58;;;;;;;17.35;100.00;100630.44;4938823;28;20762;-72
2022/09/09 07:36:26;;;;;;;11.77;3.03;;;;;;;17.55;100.00;100626.69;4918041;28;20102;-71
2022/09/09 07:38:56;;;;;;;13.82;3.22;;;;;;;17.67;100.00;100642.69;4932133;28;20393;-72
2022/09/09 07:41:27;;;;;;;13.30;3.25;;;;;;;17.73;100.00;100642.16;4938205;28;20038;-71
2022/09/09 07:43:56;;;;;;;11.32;3.58;;;;;;;17.82;100.00;100639.41;4927172;28;20075;-71
2022/09/09 07:46:25;;;;;;;10.10;3.78;;;;;;;18.03;100.00;100628.34;4942386;28;20030;-71
2022/09/09 07:48:54;;;;;;;12.65;3.00;;;;;;;18.13;100.00;100641.81;4943603;28;20031;-71
2022/09/09 07:51:36;;;;;;;7.10;2.80;;;;;;;17.90;100.00;100645.88;4934944;28;20094;-71
2022/09/09 07:54:09;;;;;;;11.82;4.47;;;;;;;18.02;100.00;100636.59;4946584;28;20046;-71
2022/09/09 07:56:37;;;;;;;14.70;3.13;;;;;;;18.17;100.00;100642.31;4941131;28;20066;-72
2022/09/09 07:59:04;;;;;;;6.78;2.35;;;;;;;18.21;100.00;100644.56;4933308;28;20623;-72
2022/09/09 08:01:42;;;;;;;15.63;3.38;;;;;;;18.89;100.00;100644.09;4942060;28;20043;-72
2022/09/09 08:04:14;;;;;;;7.90;2.60;;;;;;;19.32;100.00;100645.94;4938215;28;20864;-71
2022/09/09 08:06:42;;;;;;;7.85;2.70;;;;;;;19.06;100.00;100645.09;4946207;28;20050;-71
2022/09/09 08:09:09;;;;;;;8.32;3.00;;;;;;;19.18;100.00;100648.38;4938418;28;20039;-72
2022/09/09 08:11:36;;;;;;;5.93;2.45;;;;;;;19.65;100.00;100648.88;4938487;28;20047;-72
2022/09/09 08:14:03;;;;;;;9.52;3.33;;;;;;;20.05;100.00;100650.09;4939835;28;20045;-71
2022/09/09 08:16:32;;;;;;;9.52;2.80;;;;;;;20.11;97.62;100646.72;4937265;28;20043;-72
2022/09/09 08:18:59;;;;;;;7.50;2.03;;;;;;;20.95;96.18;100643.88;4934035;28;20250;-72
2022/09/09 08:21:31;;;;;;;11.85;2.50;;;;;;;21.18;91.09;100644.00;4933723;28;20042;-71
2022/09/09 08:23:59;;;;;;;13.13;3.22;;;;;;;20.72;90.94;100641.97;4926663;28;20059;-70
2022/09/09 08:26:28;;;;;;;13.73;2.50;;;;;;;20.65;90.62;100649.94;4930281;28;20675;-72
2022/09/09 08:28:56;;;;;;;17.02;3.20;;;;;;;21.05;88.98;100648.28;4927177;28;20035;-72
2022/09/09 08:31:31;;;;;;;10.50;2.92;;;;;;;20.72;93.38;100650.13;4926941;28;20246;-72
2022/09/09 08:33:59;;;;;;;13.30;2.90;;;;;;;20.27;93.46;100654.06;4933168;28;20062;-72
2022/09/09 08:36:27;;;;;;;7.30;2.33;;;;;;;19.62;94.22;100657.31;4922330;28;20058;-73
2022/09/09 08:38:55;;;;;;;9.00;2.00;;;;;;;19.18;97.01;100656.47;4929741;28;20123;-71
2022/09/09 08:41:34;;;;;;;9.10;2.10;;;;;;;19.67;96.57;100661.22;4926361;28;20147;-72
2022/09/09 08:44:11;;;;;;;9.75;2.78;;;;;;;19.46;95.51;100655.34;4939819;28;20809;-73
2022/09/09 08:47:01;;;;;;;4.30;1.95;;;;;;;19.57;94.86;100663.16;4936118;28;20031;-72
2022/09/09 08:49:35;;;;;;;11.43;1.95;;;;;;;19.23;95.95;100663.13;4932509;28;20201;-72
2022/09/09 08:52:02;;;;;;;10.32;2.80;;;;;;;19.27;96.82;100658.25;4923844;28;20106;-71
2022/09/09 08:54:34;;;;;;;10.73;2.35;;;;;;;18.92;95.56;100654.59;4924932;28;20031;-72
2022/09/09 08:57:00;;;;;;;9.20;2.50;;;;;;;18.90;96.90;100662.00;4930449;28;20127;-73
2022/09/09 08:59:25;;;;;;;10.50;2.20;;;;;;;19.36;96.35;100665.41;4932499;28;20475;-72
2022/09/09 09:02:16;;;;;;;8.25;2.10;;;;;;;19.16;97.00;100667.47;4934760;28;20038;-71
2022/09/09 09:05:23;;;;;;;5.43;1.92;;;;;;;18.83;96.88;100658.25;4933140;28;20050;-72
2022/09/09 09:08:06;;;;;;;6.53;2.33;;;;;;;18.81;98.30;100663.78;4922055;28;20036;-70
2022/09/09 09:10:49;;;;;;;7.60;3.03;;;;;;;18.73;99.83;100668.28;4933580;28;20147;-71
2022/09/09 09:13:26;;;;;;;7.72;2.08;;;;;;;18.85;99.00;100665.19;4932020;28;20114;-72
2022/09/09 09:16:02;;;;;;;9.52;2.22;;;;;;;18.68;99.16;100665.16;4935285;28;20622;-72
2022/09/09 09:18:28;;;;;;;10.98;2.83;;;;;;;18.43;100.00;100672.16;4928622;29;20031;-72
2022/09/09 09:21:06;;;;;;;4.00;1.88;;;;;;;18.17;100.00;100672.84;4944432;28;20036;-70
2022/09/09 09:23:42;;;;;;;10.43;2.70;;;;;;;18.59;99.64;100673.19;4943667;28;20046;-72
2022/09/09 09:26:13;;;;;;;8.95;2.40;;;;;;;18.70;99.86;100677.53;4942635;28;20621;-72
2022/09/09 09:28:40;;;;;;;7.72;2.40;;;;;;;19.32;96.04;100675.69;4951392;28;20121;-71
2022/09/09 09:31:13;;;;;;;9.75;2.38;;;;;;;19.28;93.96;100670.78;4934414;28;20246;-72
2022/09/09 09:33:52;;;;;;;5.38;2.00;;;;;;;19.69;94.63;100676.47;4951616;28;20034;-72
2022/09/09 09:36:32;;;;;;;5.43;1.63;;;;;;;20.44;92.44;100661.22;4920872;28;20043;-71
2022/09/09 09:39:02;;;;;;;10.63;2.75;;;;;;;20.59;89.32;100667.72;4933713;28;20035;-72
2022/09/09 09:41:33;;;;;;;5.57;1.65;;;;;;;20.69;85.02;100664.88;4931991;28;20694;-70
2022/09/09 09:44:00;;;;;;;4.97;1.60;;;;;;;20.32;87.99;100657.97;4918075;28;20264;-73
2022/09/09 09:46:28;;;;;;;8.55;2.67;;;;;;;19.96;88.52;100673.56;4932782;28;20038;-70
2022/09/09 09:49:08;;;;;;;4.28;1.27;;;;;;;19.90;88.57;100666.94;4942951;28;20030;-70
2022/09/09 09:51:35;;;;;;;6.78;1.98;;;;;;;19.90;88.33;100671.50;4918968;28;20050;-69
2022/09/09 09:54:13;;;;;;;8.57;2.53;;;;;;;20.18;86.61;100670.28;4918360;28;20059;-71
2022/09/09 09:56:40;;;;;;;6.00;1.75;;;;;;;20.54;84.37;100661.94;4927935;28;20040;-71
2022/09/09 09:59:32;;;;;;;5.25;1.27;;;;;;;20.73;86.27;100663.50;4924210;28;20045;-70
2022/09/09 10:02:12;;;;;;;4.15;1.92;;;;;;;20.74;83.36;100667.91;4922571;28;20069;-70
2022/09/09 10:04:38;;;;;;;6.60;2.08;;;;;;;21.33;82.46;100667.75;4940785;28;20036;-72
2022/09/09 10:07:18;;;;;;;7.47;1.90;;;;;;;21.19;81.41;100667.41;4942291;28;20046;-71
2022/09/09 10:09:44;;;;;;;6.32;2.08;;;;;;;21.07;81.40;100666.06;4944487;28;20904;-72
2022/09/09 10:12:22;;;;;;;9.57;2.88;;;;;;;21.11;80.69;100656.56;4925001;28;20043;-73
2022/09/09 10:14:56;;;;;;;6.68;1.48;;;;;;;21.28;80.63;100654.69;4922870;28;20071;-73
2022/09/09 10:17:40;;;;;;;11.02;1.95;;;;;;;21.35;80.72;100657.59;4934804;28;20043;-71
2022/09/09 10:20:41;;;;;;;7.72;1.90;;;;;;;20.88;80.33;100656.41;4915295;28;20043;-72
2022/09/09 10:23:28;;;;;;;12.52;2.13;;;;;;;20.93;83.58;100655.88;4932962;28;20138;-71
2022/09/09 10:26:15;;;;;;;8.85;1.92;;;;;;;19.87;85.29;100675.38;4936492;28;20822;-72
2022/09/09 10:29:04;;;;;;;6.50;1.70;;;;;;;19.49;86.63;100673.13;4931252;28;20691;-71
2022/09/09 10:32:01;;;;;;;6.72;1.45;;;;;;;19.52;88.28;100670.06;4918925;28;20812;-72
2022/09/09 10:34:44;;;;;;;7.18;1.23;;;;;;;19.69;88.46;100673.78;4929099;28;20056;-72
2022/09/09 10:37:29;;;;;;;12.05;1.65;;;;;;;19.98;87.67;100676.09;4927678;28;20139;-71
2022/09/09 10:40:25;;;;;;;5.00;1.58;;;;;;;19.96;86.98;100673.56;4920538;28;20811;-71
2022/09/09 10:42:54;;;;;;;3.38;1.63;;;;;;;19.67;88.38;100666.66;4918631;28;20173;-71
2022/09/09 10:45:33;;;;;;;6.90;1.90;;;;;;;19.11;89.85;100665.22;4922385;28;20162;-71
2022/09/09 10:48:26;;;;;;;7.03;1.75;;;;;;;18.89;90.70;100666.56;4934572;28;20460;-72
2022/09/09 10:51:03;;;;;;;4.38;1.30;;;;;;;19.12;91.66;100682.28;4947836;28;20031;-72
2022/09/09 10:53:57;;;;;;;6.13;1.33;;;;;;;19.02;89.00;100674.25;4924469;28;20036;-72
2022/09/09 10:56:24;;;;;;;7.75;1.60;;;;;;;18.89;91.87;100674.69;4950539;28;20865;-70
2022/09/09 10:59:04;;;;;;;7.20;2.17;;;;;;;18.81;91.68;100668.34;4924307;28;20094;-71
2022/09/09 11:01:37;;;;;;;5.85;1.30;;;;;;;18.80;90.95;100667.50;4933637;28;20046;-72
2022/09/09 11:04:34;;;;;;;5.53;2.00;;;;;;;18.83;94.30;100666.34;4936863;28;20063;-72
2022/09/09 11:07:04;;;;;;;5.03;1.42;;;;;;;19.36;90.82;100668.97;4937074;28;20405;-71
2022/09/09 11:09:37;;;;;;;10.38;1.83;;;;;;;20.04;86.05;100665.50;4938551;28;20047;-71
2022/09/09 11:12:03;;;;;;;10.60;2.25;;;;;;;20.51;86.08;100650.59;4923476;29;20114;-72
2022/09/09 11:14:36;;;;;;;3.95;1.65;;;;;;;20.70;83.48;100661.13;4931227;28;20131;-71
2022/09/09 11:17:06;;;;;;;6.82;1.98;;;;;;;20.48;81.39;100657.19;4916892;28;20039;-72
2022/09/09 11:19:37;;;;;;;7.50;1.58;;;;;;;20.27;84.08;100660.31;4934696;28;20849;-72
2022/09/09 11:22:14;;;;;;;9.98;1.85;;;;;;;20.20;83.19;100664.69;4938076;28;20057;-72
2022/09/09 11:24:45;;;;;;;5.00;1.55;;;;;;;20.09;85.65;100655.03;4930873;28;20031;-72
2022/09/09 11:27:20;;;;;;;8.52;1.88;;;;;;;19.71;87.32;100660.94;4936259;28;20875;-71
2022/09/09 11:30:14;;;;;;;5.78;1.60;;;;;;;19.50;88.21;100675.66;4927191;29;20057;-71
2022/09/09 11:33:09;;;;;;;9.77;2.13;;;;;;;18.82;99.12;100665.47;4943688;28;20066;-70
2022/09/09 11:36:06;;;;;;;8.95;2.03;;;;;;;18.72;100.00;100669.25;4898176;28;20067;-71
2022/09/09 11:38:51;;;;;;;13.45;2.22;;;;;;;18.53;99.58;100670.25;4940931;28;20047;-71
2022/09/09 11:41:20;;;;;;;15.23;2.60;;;;;;;18.66;100.00;100672.56;4934654;28;20043;-72
2022/09/09 11:43:51;;;;;;;5.85;1.90;;;;;;;18.56;98.74;100667.22;4920209;28;20051;-69